Time;durP1;ratioP1;P1;durP2;ratioP2;P2;SDS_P1;SDS_P2;PMS_P1;PMS_P2;Temp;Humidity;BMP_temperature;BMP_pressure;BME280_temperature;BME280_humidity;BME280_pressure;Samples;Min_cycle;Max_cycle;Signal;HPM_P1;HPM_P2
2021/09/04 00:00:45;;;;;;;26.45;17.25;;;17.60;96.50;;;;;;5033987;28;20026;-70
2021/09/04 00:03:10;;;;;;;25.33;16.30;;;17.60;96.60;;;;;;5034505;28;20034;-69
2021/09/04 00:05:36;;;;;;;27.98;17.40;;;17.60;96.70;;;;;;5034922;28;20040;-70
2021/09/04 00:08:01;;;;;;;27.45;17.48;;;17.50;96.70;;;;;;5042490;28;20021;-70
2021/09/04 00:10:27;;;;;;;25.60;16.75;;;17.50;96.70;;;;;;5033294;28;20132;-69
2021/09/04 00:12:52;;;;;;;26.35;17.30;;;17.50;96.90;;;;;;5033984;28;20458;-70
2021/09/04 00:15:18;;;;;;;26.25;17.77;;;17.50;97.10;;;;;;5032689;28;20021;-70
2021/09/04 00:17:43;;;;;;;26.80;16.88;;;17.40;97.10;;;;;;5031024;28;20465;-70
2021/09/04 00:20:10;;;;;;;27.08;17.02;;;17.40;97.30;;;;;;5033689;28;20034;-70
2021/09/04 00:22:35;;;;;;;24.67;16.10;;;17.40;97.30;;;;;;5033152;28;20478;-70
2021/09/04 00:25:01;;;;;;;25.08;16.10;;;17.40;97.40;;;;;;5027118;28;20040;-70
2021/09/04 00:27:26;;;;;;;30.00;17.67;;;17.40;97.40;;;;;;5026025;28;20121;-70
2021/09/04 00:29:52;;;;;;;23.63;15.85;;;17.40;97.50;;;;;;5034198;28;20056;-70
2021/09/04 00:32:17;;;;;;;23.80;15.48;;;17.40;97.50;;;;;;5032495;28;20428;-70
2021/09/04 00:34:43;;;;;;;26.50;16.70;;;17.40;97.60;;;;;;5033662;28;20018;-70
2021/09/04 00:37:09;;;;;;;26.90;16.27;;;17.30;97.60;;;;;;5032523;28;20045;-70
2021/09/04 00:39:34;;;;;;;32.08;18.63;;;17.40;97.70;;;;;;5026058;28;20032;-70
2021/09/04 00:42:00;;;;;;;25.33;16.70;;;17.40;97.80;;;;;;5031190;28;20128;-70
2021/09/04 00:44:25;;;;;;;25.02;17.05;;;17.30;97.60;;;;;;5032896;28;20065;-70
2021/09/04 00:47:00;;;;;;;28.27;16.30;;;17.30;97.60;;;;;;5032524;28;20021;-70
2021/09/04 00:49:26;;;;;;;26.63;16.98;;;17.20;97.50;;;;;;5031469;28;20038;-70
2021/09/04 00:51:51;;;;;;;27.45;16.65;;;17.30;97.60;;;;;;5026255;28;20501;-70
2021/09/04 00:54:17;;;;;;;24.95;15.38;;;17.20;97.70;;;;;;5031797;28;20252;-70
2021/09/04 00:56:43;;;;;;;25.50;15.70;;;17.30;97.90;;;;;;5020950;28;20509;-70
2021/09/04 00:59:09;;;;;;;27.23;16.90;;;17.20;97.90;;;;;;5033605;28;20604;-70
2021/09/04 01:01:35;;;;;;;23.33;15.18;;;17.20;98.00;;;;;;5031938;28;20037;-69
2021/09/04 01:04:01;;;;;;;27.67;17.25;;;17.20;97.90;;;;;;5033554;28;20033;-70
2021/09/04 01:06:27;;;;;;;26.48;16.23;;;17.10;98.00;;;;;;5036558;28;20070;-70
2021/09/04 01:08:52;;;;;;;25.30;17.35;;;17.10;98.20;;;;;;5031558;28;20049;-70
2021/09/04 01:11:18;;;;;;;24.73;15.93;;;17.10;98.30;;;;;;5028321;28;20065;-70
2021/09/04 01:13:44;;;;;;;24.33;15.50;;;17.10;98.20;;;;;;5024753;28;20374;-70
2021/09/04 01:16:10;;;;;;;26.73;16.27;;;17.10;98.20;;;;;;5032233;28;20033;-70
2021/09/04 01:18:35;;;;;;;27.00;16.48;;;17.00;98.30;;;;;;5028541;28;20373;-70
2021/09/04 01:21:03;;;;;;;23.48;14.90;;;17.00;98.30;;;;;;5020699;28;20030;-70
2021/09/04 01:23:28;;;;;;;22.48;15.10;;;17.00;98.40;;;;;;5033353;28;20046;-69
2021/09/04 01:25:55;;;;;;;21.63;15.30;;;17.00;98.40;;;;;;5030914;28;20032;-69
2021/09/04 01:28:21;;;;;;;28.42;16.25;;;17.00;98.50;;;;;;5017218;28;20108;-69
2021/09/04 01:30:48;;;;;;;25.90;15.75;;;17.00;98.60;;;;;;5033828;28;20029;-70
2021/09/04 01:33:14;;;;;;;24.15;15.38;;;17.00;98.70;;;;;;5021157;28;20022;-70
2021/09/04 01:35:39;;;;;;;23.90;15.80;;;17.00;98.70;;;;;;5032949;28;20394;-70
2021/09/04 01:38:05;;;;;;;23.55;15.68;;;17.00;98.60;;;;;;5032574;28;20049;-69
2021/09/04 01:40:30;;;;;;;24.33;16.88;;;17.00;98.70;;;;;;5040891;28;20021;-70
2021/09/04 01:42:56;;;;;;;28.52;15.68;;;17.00;98.70;;;;;;5031595;28;20156;-69
2021/09/04 01:45:21;;;;;;;26.52;15.35;;;17.00;98.80;;;;;;5032104;28;20020;-70
2021/09/04 01:47:47;;;;;;;23.83;14.75;;;16.90;98.80;;;;;;5015311;28;20034;-70
2021/09/04 01:50:14;;;;;;;24.50;15.18;;;16.90;98.80;;;;;;5027099;28;20481;-70
2021/09/04 01:52:41;;;;;;;23.35;15.45;;;16.90;98.90;;;;;;5021777;28;20116;-70
2021/09/04 01:55:08;;;;;;;25.58;15.52;;;16.80;98.90;;;;;;5035035;28;20121;-69
2021/09/04 01:57:34;;;;;;;22.55;14.43;;;16.90;99.00;;;;;;5031961;28;20488;-70
2021/09/04 01:59:59;;;;;;;25.15;15.73;;;16.80;99.00;;;;;;5030544;28;20104;-70
2021/09/04 02:02:25;;;;;;;25.40;16.33;;;16.80;99.00;;;;;;5024619;28;20034;-70
2021/09/04 02:04:50;;;;;;;23.00;15.45;;;16.80;99.00;;;;;;5026354;28;20377;-70
2021/09/04 02:07:16;;;;;;;25.27;15.77;;;16.80;99.10;;;;;;5040386;28;20049;-69
2021/09/04 02:09:41;;;;;;;21.48;14.93;;;16.80;99.10;;;;;;5031613;28;20025;-70
2021/09/04 02:12:07;;;;;;;24.38;15.15;;;16.80;99.20;;;;;;5032006;28;20148;-70
2021/09/04 02:14:32;;;;;;;25.33;15.57;;;16.80;99.10;;;;;;5031444;28;20033;-70
2021/09/04 02:16:58;;;;;;;26.13;15.00;;;16.80;99.10;;;;;;5031265;28;20021;-70
2021/09/04 02:19:23;;;;;;;25.92;15.55;;;16.80;99.20;;;;;;5032550;28;20026;-70
2021/09/04 02:21:49;;;;;;;28.17;16.33;;;16.70;99.20;;;;;;5033298;28;20037;-70
2021/09/04 02:24:14;;;;;;;24.23;15.40;;;16.70;99.30;;;;;;5036205;28;20017;-70
2021/09/04 02:26:40;;;;;;;26.08;16.67;;;16.70;99.30;;;;;;5043887;28;20124;-69
2021/09/04 02:29:05;;;;;;;24.50;15.50;;;16.70;99.40;;;;;;5034183;28;20033;-70
2021/09/04 02:31:31;;;;;;;26.23;16.67;;;16.70;99.30;;;;;;5025578;28;20409;-70
2021/09/04 02:33:56;;;;;;;29.85;16.35;;;16.70;99.30;;;;;;5038003;28;20030;-70
2021/09/04 02:36:23;;;;;;;27.30;16.58;;;16.60;99.40;;;;;;5041545;28;20030;-70
2021/09/04 02:38:49;;;;;;;24.73;15.35;;;16.60;99.40;;;;;;5036745;28;20057;-70
2021/09/04 02:41:17;;;;;;;27.77;16.05;;;16.50;99.30;;;;;;5038996;28;20040;-70
2021/09/04 02:43:42;;;;;;;26.35;15.30;;;16.60;99.50;;;;;;5036328;28;20115;-70
2021/09/04 02:46:09;;;;;;;25.83;15.63;;;16.50;99.40;;;;;;5029708;28;20114;-71
2021/09/04 02:48:34;;;;;;;26.27;16.38;;;16.50;99.40;;;;;;5038888;28;20075;-70
2021/09/04 02:51:00;;;;;;;22.88;15.02;;;16.50;99.50;;;;;;5041783;28;20469;-70
2021/09/04 02:53:25;;;;;;;25.55;15.07;;;16.50;99.40;;;;;;5038218;28;20478;-70
2021/09/04 02:55:51;;;;;;;26.02;16.48;;;16.50;99.50;;;;;;5033485;28;20033;-70
2021/09/04 02:58:16;;;;;;;26.42;15.07;;;16.50;99.60;;;;;;5040114;28;20028;-73
2021/09/04 03:00:42;;;;;;;29.55;16.33;;;16.50;99.60;;;;;;5031265;28;20021;-70
2021/09/04 03:03:07;;;;;;;27.98;16.55;;;16.40;99.60;;;;;;5031438;28;20056;-71
2021/09/04 03:05:33;;;;;;;29.80;16.00;;;16.40;99.50;;;;;;5029834;28;20351;-71
2021/09/04 03:07:59;;;;;;;25.52;16.10;;;16.40;99.50;;;;;;5032131;28;20025;-71
2021/09/04 03:10:25;;;;;;;25.90;16.52;;;16.40;99.60;;;;;;5030475;28;20022;-71
2021/09/04 03:12:50;;;;;;;25.38;16.13;;;16.40;99.70;;;;;;5030677;28;20025;-71
2021/09/04 03:15:16;;;;;;;23.35;14.63;;;16.40;99.70;;;;;;5037429;28;20017;-71
2021/09/04 03:17:42;;;;;;;27.05;16.38;;;16.40;99.70;;;;;;5031233;28;20030;-71
2021/09/04 03:20:09;;;;;;;23.35;15.00;;;16.40;99.70;;;;;;5025982;28;20032;-71
2021/09/04 03:22:35;;;;;;;27.02;16.90;;;16.30;99.70;;;;;;5040001;28;20080;-71
2021/09/04 03:25:01;;;;;;;25.35;16.60;;;16.30;99.70;;;;;;5033719;28;20057;-70
2021/09/04 03:27:27;;;;;;;28.58;15.95;;;16.30;99.80;;;;;;5043464;28;20029;-72
2021/09/04 03:29:53;;;;;;;26.02;15.98;;;16.30;99.80;;;;;;5026996;28;20024;-71
2021/09/04 03:32:18;;;;;;;28.10;16.40;;;16.30;99.90;;;;;;5037662;28;20041;-71
2021/09/04 03:34:45;;;;;;;26.05;15.07;;;16.30;99.90;;;;;;5033500;28;20029;-71
2021/09/04 03:37:10;;;;;;;26.33;15.60;;;16.30;99.90;;;;;;5030740;28;20104;-71
2021/09/04 03:39:36;;;;;;;28.48;15.75;;;16.30;99.90;;;;;;5032594;28;20164;-71
2021/09/04 03:42:02;;;;;;;25.38;15.60;;;16.30;99.90;;;;;;5037155;28;20030;-71
2021/09/04 03:44:27;;;;;;;24.15;15.02;;;16.30;99.90;;;;;;5028903;28;20036;-70
2021/09/04 03:46:52;;;;;;;29.73;16.00;;;16.20;99.90;;;;;;5038634;28;20219;-71
2021/09/04 03:49:18;;;;;;;26.83;16.63;;;16.20;99.90;;;;;;5036464;28;20032;-71
2021/09/04 03:51:43;;;;;;;29.38;16.67;;;16.20;99.90;;;;;;5039081;28;20021;-71
2021/09/04 03:54:09;;;;;;;25.52;15.73;;;16.10;99.90;;;;;;5028956;28;20033;-71
2021/09/04 03:56:34;;;;;;;27.45;16.98;;;16.20;99.90;;;;;;5027252;28;20025;-70
2021/09/04 03:59:00;;;;;;;28.90;16.52;;;16.20;99.90;;;;;;5029155;28;20024;-70
2021/09/04 04:01:25;;;;;;;29.02;15.73;;;16.20;99.90;;;;;;5029167;28;20389;-70
2021/09/04 04:03:51;;;;;;;26.48;16.48;;;16.10;99.90;;;;;;5030412;28;20029;-71
2021/09/04 04:06:17;;;;;;;27.40;16.10;;;16.10;99.90;;;;;;5030074;28;20037;-71
2021/09/04 04:08:42;;;;;;;26.15;15.80;;;16.20;99.90;;;;;;5014560;28;20026;-71
2021/09/04 04:11:10;;;;;;;27.10;14.68;;;16.10;99.90;;;;;;5029668;28;20044;-71
2021/09/04 04:13:37;;;;;;;29.48;17.17;;;16.20;99.90;;;;;;5023196;28;20037;-71
2021/09/04 04:16:04;;;;;;;23.80;15.43;;;16.20;99.90;;;;;;5023945;28;20528;-71
2021/09/04 04:18:29;;;;;;;25.65;16.20;;;16.20;99.90;;;;;;5029210;28;20083;-72
2021/09/04 04:20:55;;;;;;;24.35;13.80;;;16.10;99.90;;;;;;5031109;28;20093;-72
2021/09/04 04:23:20;;;;;;;28.08;16.85;;;16.20;99.90;;;;;;5030228;28;20037;-71
2021/09/04 04:25:45;;;;;;;27.13;16.55;;;16.20;99.90;;;;;;5028719;28;20032;-72
2021/09/04 04:28:11;;;;;;;28.10;16.65;;;16.10;99.90;;;;;;5030275;28;20497;-71
2021/09/04 04:30:36;;;;;;;26.52;15.35;;;16.10;99.90;;;;;;5030226;28;20033;-71
2021/09/04 04:33:02;;;;;;;26.90;16.52;;;16.10;99.90;;;;;;5019461;28;20486;-71
2021/09/04 04:35:27;;;;;;;28.33;16.45;;;16.10;99.90;;;;;;5034000;28;20155;-72
2021/09/04 04:37:53;;;;;;;26.05;16.27;;;16.10;99.90;;;;;;5016579;28;20026;-71
2021/09/04 04:40:18;;;;;;;24.20;16.00;;;16.20;99.90;;;;;;5023235;28;20382;-71
2021/09/04 04:42:44;;;;;;;33.47;18.45;;;16.20;99.90;;;;;;5032564;28;20041;-71
2021/09/04 04:45:10;;;;;;;30.50;17.42;;;16.20;99.90;;;;;;5018521;28;20367;-71
2021/09/04 04:47:35;;;;;;;29.48;17.30;;;16.10;99.90;;;;;;5029498;28;20037;-72
2021/09/04 04:50:01;;;;;;;27.95;16.17;;;16.20;99.90;;;;;;5023297;28;20413;-71
2021/09/04 04:52:26;;;;;;;27.23;16.42;;;16.20;99.90;;;;;;5030633;28;20063;-71
2021/09/04 04:54:52;;;;;;;29.98;18.02;;;16.20;99.90;;;;;;5032991;28;20029;-71
2021/09/04 04:57:18;;;;;;;32.72;17.58;;;16.20;99.90;;;;;;5036351;28;20029;-71
2021/09/04 04:59:44;;;;;;;27.13;16.38;;;16.20;99.90;;;;;;5021474;28;20028;-72
2021/09/04 05:02:09;;;;;;;29.77;16.17;;;16.20;99.90;;;;;;5033692;28;20033;-71
2021/09/04 05:04:35;;;;;;;31.63;17.73;;;16.30;99.90;;;;;;5026047;28;20013;-72
2021/09/04 05:07:00;;;;;;;29.65;17.42;;;16.20;99.90;;;;;;5033255;28;20120;-71
2021/09/04 05:09:26;;;;;;;26.58;15.82;;;16.30;99.90;;;;;;5033261;28;20025;-71
2021/09/04 05:11:51;;;;;;;23.58;14.90;;;16.30;99.90;;;;;;5042733;28;20034;-71
2021/09/04 05:14:16;;;;;;;25.70;16.45;;;16.30;99.90;;;;;;5032636;28;20021;-71
2021/09/04 05:16:42;;;;;;;26.88;16.13;;;16.40;99.90;;;;;;5019791;28;20613;-71
2021/09/04 05:19:07;;;;;;;27.35;15.75;;;16.40;99.90;;;;;;5033388;28;20025;-71
2021/09/04 05:21:33;;;;;;;27.30;16.20;;;16.40;99.90;;;;;;5033220;28;20033;-72
2021/09/04 05:23:58;;;;;;;23.83;16.00;;;16.40;99.90;;;;;;5016941;28;20038;-71
2021/09/04 05:26:24;;;;;;;26.95;15.45;;;16.50;99.90;;;;;;5032049;28;20025;-71
2021/09/04 05:28:49;;;;;;;27.40;17.27;;;16.40;99.80;;;;;;5032662;28;20378;-71
2021/09/04 05:31:15;;;;;;;24.25;14.98;;;16.40;99.80;;;;;;5032274;28;20034;-71
2021/09/04 05:33:40;;;;;;;23.55;14.25;;;16.50;99.70;;;;;;5024886;28;20157;-71
2021/09/04 05:36:08;;;;;;;23.52;15.25;;;16.50;99.70;;;;;;5020425;28;20044;-71
2021/09/04 05:38:37;;;;;;;26.23;16.10;;;16.50;99.60;;;;;;5032168;28;20084;-71
2021/09/04 05:41:04;;;;;;;26.77;15.65;;;16.40;99.60;;;;;;5031417;28;20377;-71
2021/09/04 05:43:29;;;;;;;25.13;14.82;;;16.30;99.60;;;;;;5031444;28;20444;-71
2021/09/04 05:45:55;;;;;;;28.00;15.52;;;16.30;99.70;;;;;;5037238;28;20022;-71
2021/09/04 05:48:20;;;;;;;23.10;13.52;;;16.20;99.80;;;;;;5031994;28;20072;-71
2021/09/04 05:50:46;;;;;;;22.33;13.90;;;16.30;99.90;;;;;;5036897;28;20025;-71
2021/09/04 05:53:11;;;;;;;26.52;15.15;;;16.30;99.90;;;;;;5032297;28;20049;-70
2021/09/04 05:55:37;;;;;;;26.50;16.38;;;16.40;99.90;;;;;;5025837;28;20155;-70
2021/09/04 05:58:02;;;;;;;28.33;16.50;;;16.40;99.80;;;;;;5013306;28;20029;-70
2021/09/04 06:00:28;;;;;;;25.67;14.48;;;16.40;99.80;;;;;;5026081;28;20084;-70
2021/09/04 06:02:53;;;;;;;24.45;14.27;;;16.50;99.70;;;;;;5023967;28;20111;-70
2021/09/04 06:05:19;;;;;;;23.48;13.63;;;16.50;99.70;;;;;;5034250;28;20029;-71
2021/09/04 06:07:44;;;;;;;21.25;12.68;;;16.50;99.60;;;;;;5033421;28;20033;-70
2021/09/04 06:10:10;;;;;;;25.65;14.52;;;16.50;99.70;;;;;;5031541;28;20025;-70
2021/09/04 06:12:36;;;;;;;23.33;14.27;;;16.60;99.60;;;;;;5031325;28;20083;-71
2021/09/04 06:15:02;;;;;;;22.58;14.18;;;16.50;99.60;;;;;;5033467;28;20032;-70
2021/09/04 06:17:27;;;;;;;23.30;13.32;;;16.50;99.60;;;;;;5030884;28;20178;-70
2021/09/04 06:19:53;;;;;;;22.58;12.55;;;16.60;99.60;;;;;;5030483;28;20038;-70
2021/09/04 06:22:18;;;;;;;22.95;13.20;;;16.60;99.50;;;;;;5018429;28;20032;-70
2021/09/04 06:24:44;;;;;;;21.02;11.90;;;16.70;99.50;;;;;;5030321;28;20029;-70
2021/09/04 06:27:10;;;;;;;20.15;11.85;;;16.70;99.60;;;;;;5019488;28;20351;-71
2021/09/04 06:29:35;;;;;;;21.27;13.68;;;16.70;99.60;;;;;;5029269;28;20434;-71
2021/09/04 06:32:01;;;;;;;18.63;12.70;;;16.80;99.50;;;;;;5023207;28;20021;-73
2021/09/04 06:34:26;;;;;;;20.33;12.50;;;16.80;99.40;;;;;;5029628;28;20029;-74
2021/09/04 06:36:52;;;;;;;19.42;12.13;;;16.80;99.50;;;;;;5031580;28;20437;-71
2021/09/04 06:39:17;;;;;;;20.08;12.45;;;16.80;99.40;;;;;;5023639;28;20025;-69
2021/09/04 06:41:43;;;;;;;20.25;12.13;;;16.80;99.40;;;;;;5031285;28;20114;-69
2021/09/04 06:44:08;;;;;;;20.80;13.02;;;16.80;99.50;;;;;;5035376;28;20660;-68
2021/09/04 06:46:34;;;;;;;21.40;12.15;;;16.90;99.40;;;;;;5034641;28;20120;-69
2021/09/04 06:48:59;;;;;;;20.63;12.68;;;16.90;99.30;;;;;;5028338;28;20029;-69
2021/09/04 06:51:26;;;;;;;17.98;12.52;;;16.90;99.30;;;;;;5036968;28;20031;-69
2021/09/04 06:53:52;;;;;;;21.90;12.45;;;17.00;99.30;;;;;;5029453;28;20052;-68
2021/09/04 06:56:17;;;;;;;18.20;11.32;;;17.00;99.40;;;;;;5030755;28;20466;-69
2021/09/04 06:58:43;;;;;;;23.52;12.20;;;17.00;99.40;;;;;;5027564;28;20021;-69
2021/09/04 07:01:08;;;;;;;21.25;12.52;;;17.10;99.30;;;;;;5037815;28;20013;-69
2021/09/04 07:03:34;;;;;;;20.88;13.52;;;17.10;99.50;;;;;;5032780;28;20033;-69
2021/09/04 07:05:59;;;;;;;19.98;12.27;;;17.10;99.30;;;;;;5029585;28;20109;-69
2021/09/04 07:08:25;;;;;;;22.55;11.90;;;17.20;99.30;;;;;;5030677;28;20040;-69
2021/09/04 07:10:50;;;;;;;20.35;13.40;;;17.20;99.20;;;;;;5035267;28;20053;-69
2021/09/04 07:13:16;;;;;;;18.92;12.43;;;17.30;99.20;;;;;;5031660;28;20028;-70
2021/09/04 07:15:42;;;;;;;18.30;11.65;;;17.30;99.20;;;;;;5037820;28;20499;-71
2021/09/04 07:18:08;;;;;;;21.42;12.82;;;17.40;99.20;;;;;;5029328;28;20030;-72
2021/09/04 07:20:33;;;;;;;19.33;12.05;;;17.40;99.10;;;;;;5030320;28;20021;-71
2021/09/04 07:22:59;;;;;;;21.60;13.32;;;17.50;99.10;;;;;;5026969;28;20029;-72
2021/09/04 07:25:24;;;;;;;20.50;13.43;;;17.50;99.00;;;;;;5035609;28;20132;-71
2021/09/04 07:27:50;;;;;;;21.58;12.38;;;17.50;99.00;;;;;;5033523;28;20067;-72
2021/09/04 07:30:16;;;;;;;21.23;13.07;;;17.50;98.90;;;;;;5028026;28;20030;-72
2021/09/04 07:32:42;;;;;;;22.15;12.35;;;17.50;98.80;;;;;;5031532;28;20366;-70
2021/09/04 07:35:08;;;;;;;21.38;12.68;;;17.50;98.80;;;;;;5037511;28;20052;-70
2021/09/04 07:37:34;;;;;;;19.55;13.45;;;17.60;98.80;;;;;;5029587;28;20033;-70
2021/09/04 07:39:59;;;;;;;21.25;12.77;;;17.60;98.80;;;;;;5023570;28;20029;-70
2021/09/04 07:42:25;;;;;;;22.65;13.38;;;17.60;98.70;;;;;;5029319;28;20029;-70
2021/09/04 07:44:50;;;;;;;18.13;11.40;;;17.70;98.60;;;;;;5025978;28;20490;-71
2021/09/04 07:47:16;;;;;;;22.05;13.30;;;17.70;98.60;;;;;;5020900;28;20477;-72
2021/09/04 07:49:41;;;;;;;19.88;12.57;;;17.80;98.60;;;;;;5029002;28;20036;-71
2021/09/04 07:52:07;;;;;;;22.48;13.20;;;17.80;98.60;;;;;;5027334;28;20039;-72
2021/09/04 07:54:32;;;;;;;21.50;13.80;;;17.80;98.50;;;;;;5030770;28;20068;-71
2021/09/04 07:56:58;;;;;;;22.20;13.38;;;17.70;98.50;;;;;;5031126;28;20017;-71
2021/09/04 07:59:23;;;;;;;21.52;13.15;;;17.70;98.70;;;;;;5026520;28;20026;-71
2021/09/04 08:01:49;;;;;;;37.55;16.30;;;17.80;98.80;;;;;;5028730;28;20034;-71
2021/09/04 08:04:14;;;;;;;24.00;13.25;;;17.80;98.50;;;;;;5022962;28;20034;-72
2021/09/04 08:06:40;;;;;;;27.27;14.10;;;17.80;98.60;;;;;;5035998;28;20056;-72
2021/09/04 08:09:06;;;;;;;19.25;12.95;;;17.80;98.50;;;;;;5032528;28;20041;-72
2021/09/04 08:11:31;;;;;;;19.00;11.95;;;17.90;98.60;;;;;;5038109;28;20075;-72
2021/09/04 08:13:57;;;;;;;22.02;13.75;;;17.90;98.40;;;;;;5030521;28;20033;-72
2021/09/04 08:16:22;;;;;;;21.30;12.05;;;18.00;98.50;;;;;;5031009;28;20417;-71
2021/09/04 08:18:48;;;;;;;22.17;14.13;;;18.10;98.50;;;;;;5041110;28;20033;-72
2021/09/04 08:21:13;;;;;;;21.33;12.90;;;18.30;98.50;;;;;;5032729;28;20025;-73
2021/09/04 08:23:39;;;;;;;18.42;11.73;;;18.30;98.40;;;;;;5035653;28;20366;-74
2021/09/04 08:26:04;;;;;;;17.58;12.07;;;18.40;98.40;;;;;;5038843;28;20021;-72
2021/09/04 08:28:30;;;;;;;17.52;11.48;;;18.50;98.10;;;;;;5029679;28;20030;-75
2021/09/04 08:30:55;;;;;;;21.15;11.90;;;18.50;98.10;;;;;;5037676;28;20434;-76
2021/09/04 08:33:21;;;;;;;18.55;11.13;;;18.50;98.00;;;;;;5041082;28;20387;-76
2021/09/04 08:35:46;;;;;;;20.40;13.07;;;18.60;98.30;;;;;;5033925;28;20414;-75
2021/09/04 08:38:12;;;;;;;21.17;12.35;;;18.70;98.00;;;;;;5031714;28;20023;-75
2021/09/04 08:40:42;;;;;;;18.55;13.18;;;18.70;97.90;;;;;;5027885;28;20024;-76
2021/09/04 08:43:08;;;;;;;20.80;12.73;;;18.90;97.90;;;;;;5034848;28;20095;-76
2021/09/04 08:45:33;;;;;;;21.65;14.18;;;18.90;97.70;;;;;;5030344;28;20041;-76
2021/09/04 08:48:00;;;;;;;18.50;11.55;;;18.90;97.30;;;;;;5028275;28;20071;-76
2021/09/04 08:50:26;;;;;;;20.05;11.65;;;19.00;97.30;;;;;;5026301;28;20030;-76
2021/09/04 08:52:53;;;;;;;20.23;11.85;;;19.00;97.50;;;;;;5038496;28;20037;-76
2021/09/04 08:55:19;;;;;;;17.88;12.00;;;19.10;97.50;;;;;;5029939;28;20091;-75
2021/09/04 08:57:45;;;;;;;18.08;11.20;;;19.20;97.40;;;;;;5026688;28;20030;-75
2021/09/04 09:00:11;;;;;;;17.67;11.27;;;19.30;97.30;;;;;;5031903;28;20022;-75
2021/09/04 09:02:37;;;;;;;18.73;11.98;;;19.30;97.20;;;;;;5039348;28;20041;-76
2021/09/04 09:05:05;;;;;;;19.80;12.15;;;19.40;97.00;;;;;;5016919;28;20033;-76
2021/09/04 09:07:46;;;;;;;19.02;11.25;;;19.50;96.60;;;;;;5031006;28;20155;-76
2021/09/04 09:10:20;;;;;;;16.88;11.45;;;19.50;97.10;;;;;;5031951;28;20097;-75
2021/09/04 09:12:46;;;;;;;17.48;11.70;;;19.70;97.10;;;;;;5024791;28;20086;-73
2021/09/04 09:15:23;;;;;;;18.50;12.02;;;19.70;97.00;;;;;;5036915;28;20029;-73
2021/09/04 09:18:12;;;;;;;21.25;11.55;;;19.90;97.00;;;;;;5033694;28;20033;-74
2021/09/04 09:20:39;;;;;;;18.98;13.05;;;19.90;96.70;;;;;;5033171;28;20101;-74
2021/09/04 09:23:08;;;;;;;17.13;11.07;;;20.00;96.60;;;;;;5030932;28;20042;-74
2021/09/04 09:25:34;;;;;;;16.10;11.15;;;20.00;96.60;;;;;;5042430;28;20128;-74
2021/09/04 09:28:04;;;;;;;20.70;11.38;;;20.00;96.30;;;;;;5026043;28;20029;-75
2021/09/04 09:30:35;;;;;;;20.00;10.82;;;20.00;96.30;;;;;;5028506;28;20474;-75
2021/09/04 09:33:02;;;;;;;19.63;11.35;;;20.10;96.20;;;;;;5038878;28;20104;-75
2021/09/04 09:35:33;;;;;;;22.40;12.27;;;20.00;95.90;;;;;;5038709;28;20031;-75
2021/09/04 09:38:01;;;;;;;20.13;11.00;;;20.10;95.80;;;;;;5025551;28;20060;-75
2021/09/04 09:40:26;;;;;;;17.92;11.13;;;20.10;95.80;;;;;;5029090;28;20485;-75
2021/09/04 09:42:52;;;;;;;19.92;11.23;;;20.20;95.80;;;;;;5033858;28;20048;-76
2021/09/04 09:45:18;;;;;;;19.88;11.43;;;20.20;95.80;;;;;;5047094;28;20017;-75
2021/09/04 09:47:53;;;;;;;18.90;12.32;;;20.20;95.80;;;;;;5035297;28;20035;-75
2021/09/04 09:50:18;;;;;;;18.55;10.82;;;20.30;95.80;;;;;;5037284;28;20482;-75
2021/09/04 09:52:45;;;;;;;16.50;10.48;;;20.30;95.70;;;;;;5034244;28;20060;-75
2021/09/04 09:55:11;;;;;;;16.63;9.88;;;20.30;95.50;;;;;;5032079;28;20053;-75
2021/09/04 09:57:39;;;;;;;18.20;11.55;;;20.40;95.60;;;;;;5033909;28;20033;-75
2021/09/04 10:00:06;;;;;;;21.00;11.77;;;20.40;95.60;;;;;;5033134;28;20140;-76
2021/09/04 10:02:33;;;;;;;19.00;10.85;;;20.40;95.80;;;;;;5033480;28;20033;-73
2021/09/04 10:04:59;;;;;;;17.33;10.93;;;20.50;95.40;;;;;;5029317;28;20040;-74
2021/09/04 10:07:25;;;;;;;18.83;11.32;;;20.50;95.50;;;;;;5029489;28;20033;-74
2021/09/04 10:09:50;;;;;;;17.63;12.63;;;20.50;95.50;;;;;;5035767;28;20215;-73
2021/09/04 10:12:16;;;;;;;21.90;12.63;;;20.50;95.40;;;;;;5032082;28;20048;-73
2021/09/04 10:14:44;;;;;;;22.55;11.70;;;20.50;95.40;;;;;;5023230;28;20037;-72
2021/09/04 10:17:11;;;;;;;17.58;12.20;;;20.50;95.20;;;;;;5030210;28;20045;-71
2021/09/04 10:19:39;;;;;;;16.60;10.70;;;20.60;95.20;;;;;;5031326;28;20029;-72
2021/09/04 10:22:07;;;;;;;19.67;12.63;;;20.60;95.30;;;;;;5016059;28;20065;-72
2021/09/04 10:24:49;;;;;;;21.90;12.15;;;20.60;95.20;;;;;;5029314;28;20496;-72
2021/09/04 10:27:28;;;;;;;16.77;11.07;;;20.60;95.00;;;;;;5028659;28;20026;-73
2021/09/04 10:29:54;;;;;;;21.67;11.85;;;20.60;95.00;;;;;;5028048;28;20033;-74
2021/09/04 10:32:19;;;;;;;19.73;11.73;;;20.50;94.80;;;;;;5020346;28;20030;-73
2021/09/04 10:34:48;;;;;;;16.42;11.90;;;20.40;94.80;;;;;;5032754;28;20524;-73
2021/09/04 10:37:13;;;;;;;20.80;11.85;;;20.40;95.00;;;;;;5032068;28;20029;-73
2021/09/04 10:39:57;;;;;;;16.75;11.50;;;20.50;95.00;;;;;;5032021;28;20032;-73
2021/09/04 10:42:39;;;;;;;22.02;11.93;;;20.50;95.10;;;;;;5030328;28;20086;-73
2021/09/04 10:45:17;;;;;;;16.95;10.50;;;20.50;95.10;;;;;;5031731;28;20124;-73
2021/09/04 10:47:45;;;;;;;16.15;11.35;;;20.60;94.90;;;;;;5024998;28;20033;-73
2021/09/04 10:50:32;;;;;;;21.10;12.45;;;20.50;94.60;;;;;;5031192;28;20037;-73
2021/09/04 10:53:08;;;;;;;20.00;11.60;;;20.50;94.50;;;;;;5024228;28;20065;-74
2021/09/04 10:55:41;;;;;;;19.10;11.15;;;20.40;94.60;;;;;;5020501;28;20053;-74
2021/09/04 10:58:06;;;;;;;17.20;10.68;;;20.40;94.90;;;;;;5031229;28;20534;-74
2021/09/04 11:00:47;;;;;;;19.33;11.35;;;20.40;94.80;;;;;;5026308;28;20136;-73
2021/09/04 11:03:17;;;;;;;20.95;11.52;;;20.40;94.60;;;;;;5019082;28;20042;-74
2021/09/04 11:05:52;;;;;;;22.27;12.70;;;20.40;94.80;;;;;;5023122;28;20018;-73
2021/09/04 11:08:30;;;;;;;16.83;11.52;;;20.40;94.80;;;;;;5030311;28;20087;-74
2021/09/04 11:11:16;;;;;;;16.70;11.38;;;20.40;94.90;;;;;;5029739;28;20051;-74
2021/09/04 11:13:43;;;;;;;21.50;10.60;;;20.40;94.90;;;;;;5020809;28;20112;-73
2021/09/04 11:16:30;;;;;;;19.02;11.25;;;20.40;94.90;;;;;;5030510;28;20469;-74
2021/09/04 11:19:10;;;;;;;22.80;11.95;;;20.40;94.90;;;;;;5029533;28;20048;-74
2021/09/04 11:21:53;;;;;;;18.05;10.80;;;20.40;95.00;;;;;;5030300;28;20425;-74
2021/09/04 11:24:25;;;;;;;15.63;10.52;;;20.40;95.30;;;;;;5031009;28;20080;-74
2021/09/04 11:26:55;;;;;;;17.45;10.32;;;20.40;95.00;;;;;;5030577;28;20470;-74
2021/09/04 11:29:21;;;;;;;19.83;12.02;;;20.50;95.20;;;;;;5021007;28;20037;-74
2021/09/04 11:31:51;;;;;;;18.67;11.10;;;20.50;95.00;;;;;;5017378;28;20091;-73
2021/09/04 11:34:17;;;;;;;18.30;11.40;;;20.50;94.90;;;;;;5025112;28;20420;-71
2021/09/04 11:36:42;;;;;;;19.90;10.45;;;20.50;94.60;;;;;;5030081;28;20152;-73
2021/09/04 11:39:08;;;;;;;18.98;11.70;;;20.50;94.80;;;;;;5030208;28;20116;-70
2021/09/04 11:41:44;;;;;;;18.63;10.60;;;20.50;94.80;;;;;;5028562;28;20040;-72
2021/09/04 11:44:10;;;;;;;18.67;10.77;;;20.60;94.80;;;;;;5032307;28;20048;-72
2021/09/04 11:46:37;;;;;;;19.08;10.55;;;20.60;94.80;;;;;;5018946;28;20041;-73
2021/09/04 11:49:03;;;;;;;18.73;11.05;;;20.60;94.80;;;;;;5035273;28;20505;-72
2021/09/04 11:51:28;;;;;;;17.38;10.18;;;20.70;94.80;;;;;;5033821;28;20037;-71
2021/09/04 11:54:02;;;;;;;21.08;10.95;;;20.70;94.50;;;;;;5034667;28;20060;-71
2021/09/04 11:56:31;;;;;;;16.35;10.32;;;20.70;94.60;;;;;;5032393;28;20039;-72
2021/09/04 11:59:05;;;;;;;21.63;11.32;;;20.80;94.60;;;;;;5033896;28;20028;-72
2021/09/04 12:01:31;;;;;;;20.50;10.77;;;20.80;94.60;;;;;;5034082;28;20040;-72
2021/09/04 12:03:56;;;;;;;19.95;10.57;;;20.80;94.40;;;;;;5034049;28;20026;-71
2021/09/04 12:06:22;;;;;;;20.92;11.25;;;20.80;94.40;;;;;;5028523;28;20408;-71
2021/09/04 12:08:48;;;;;;;19.10;10.73;;;20.90;94.40;;;;;;5017445;28;20022;-72
2021/09/04 12:11:13;;;;;;;17.27;11.40;;;21.00;94.40;;;;;;5036553;28;20040;-72
2021/09/04 12:13:39;;;;;;;19.77;10.45;;;21.00;94.30;;;;;;5033338;28;20021;-72
2021/09/04 12:16:05;;;;;;;17.75;10.30;;;21.10;94.40;;;;;;5028850;28;20085;-72
2021/09/04 12:18:38;;;;;;;15.98;9.27;;;21.20;94.40;;;;;;5028650;28;20025;-72
2021/09/04 12:21:25;;;;;;;16.00;10.25;;;21.30;94.10;;;;;;5030713;28;20021;-72
2021/09/04 12:23:54;;;;;;;17.55;10.70;;;21.30;93.80;;;;;;5040286;28;20120;-72
2021/09/04 12:26:20;;;;;;;18.13;11.23;;;21.40;93.90;;;;;;5036273;28;20438;-73